createdAt,value
2018-12-11T00:01:02.474Z,5.67
2018-12-11T00:03:32.469Z,5.20
2018-12-11T00:06:02.615Z,8.48
2018-12-11T00:08:30.583Z,5.47
2018-12-11T00:10:58.985Z,6.17
2018-12-11T00:13:26.957Z,6.75
2018-12-11T00:15:54.918Z,5.60
2018-12-11T00:18:22.836Z,6.90
2018-12-11T00:20:50.808Z,5.12
2018-12-11T00:23:18.790Z,5.67
2018-12-11T00:25:53.683Z,6.78
2018-12-11T00:28:21.672Z,5.53
2018-12-11T00:30:49.600Z,6.40
2018-12-11T00:33:17.562Z,5.42
2018-12-11T00:35:45.535Z,4.33
2018-12-11T00:38:13.552Z,4.47
2018-12-11T00:40:41.498Z,5.87
2018-12-11T00:43:09.511Z,5.90
2018-12-11T00:45:37.537Z,4.53
2018-12-11T00:48:05.538Z,4.90
2018-12-11T00:50:33.510Z,4.03
2018-12-11T00:53:01.436Z,4.75
2018-12-11T00:55:29.441Z,4.95
2018-12-11T00:57:57.409Z,10.35
2018-12-11T01:00:25.338Z,7.42
2018-12-11T01:02:53.330Z,15.35
2018-12-11T01:05:21.286Z,10.05
2018-12-11T01:07:49.294Z,11.73
2018-12-11T01:10:17.253Z,13.10
2018-12-11T01:12:45.201Z,15.72
2018-12-11T01:15:13.154Z,13.65
2018-12-11T01:17:41.150Z,9.43
2018-12-11T01:20:09.159Z,11.57
2018-12-11T01:22:37.095Z,10.05
2018-12-11T01:25:05.357Z,9.98
2018-12-11T01:27:33.329Z,9.15
2018-12-11T01:30:01.407Z,8.95
2018-12-11T01:32:29.367Z,14.28
2018-12-11T01:34:57.312Z,11.03
2018-12-11T01:37:25.270Z,13.32
2018-12-11T01:39:53.219Z,11.90
2018-12-11T01:42:23.335Z,13.38
2018-12-11T01:44:51.291Z,11.57
2018-12-11T01:47:19.265Z,15.08
2018-12-11T01:49:47.208Z,12.93
2018-12-11T01:52:15.151Z,14.13
2018-12-11T01:54:43.134Z,15.98
2018-12-11T01:57:11.108Z,15.93
2018-12-11T01:59:39.096Z,15.85
2018-12-11T02:02:07.087Z,14.45
2018-12-11T02:04:35.015Z,15.48
2018-12-11T02:07:03.087Z,15.13
2018-12-11T02:09:31.050Z,17.20
2018-12-11T02:11:59.014Z,26.57
2018-12-11T02:14:26.966Z,24.55
2018-12-11T02:16:54.927Z,23.42
2018-12-11T02:19:22.844Z,29.98
2018-12-11T02:21:50.809Z,34.70
2018-12-11T02:24:18.795Z,46.35
2018-12-11T02:26:46.775Z,35.20
2018-12-11T02:29:14.735Z,24.63
2018-12-11T02:31:42.678Z,20.43
2018-12-11T02:34:10.605Z,20.40
2018-12-11T02:36:38.557Z,22.75
2018-12-11T02:39:07.047Z,19.20
2018-12-11T02:41:35.036Z,39.00
2018-12-11T02:44:03.052Z,15.13
2018-12-11T02:46:30.997Z,13.80
2018-12-11T02:48:58.975Z,19.50
2018-12-11T02:51:26.915Z,15.38
2018-12-11T02:53:54.831Z,21.42
2018-12-11T02:56:22.784Z,19.12
2018-12-11T02:58:50.927Z,16.17
2018-12-11T03:01:18.910Z,19.23
2018-12-11T03:03:46.876Z,27.55
2018-12-11T03:06:14.840Z,18.60
2018-12-11T03:08:42.791Z,15.58
2018-12-11T03:11:10.735Z,19.42
2018-12-11T03:13:38.683Z,18.52
2018-12-11T03:16:06.639Z,13.62
2018-12-11T03:18:34.625Z,17.20
2018-12-11T03:21:02.570Z,15.28
2018-12-11T03:23:30.485Z,18.37
2018-12-11T03:25:58.429Z,14.03
2018-12-11T03:28:26.382Z,17.17
2018-12-11T03:30:54.390Z,18.85
2018-12-11T03:33:22.396Z,21.57
2018-12-11T03:35:50.372Z,17.15
2018-12-11T03:38:18.664Z,16.70
2018-12-11T03:40:46.651Z,16.80
2018-12-11T03:43:14.589Z,16.67
2018-12-11T03:45:42.554Z,15.18
2018-12-11T03:48:10.558Z,13.80
2018-12-11T03:50:38.551Z,9.53
2018-12-11T03:53:06.548Z,9.33
2018-12-11T03:55:34.590Z,8.70
2018-12-11T03:58:02.595Z,11.57
2018-12-11T04:00:31.728Z,9.60
2018-12-11T04:02:59.727Z,8.98
2018-12-11T04:05:27.677Z,7.37
2018-12-11T04:07:55.664Z,9.70
2018-12-11T04:10:23.675Z,7.87
2018-12-11T04:12:51.716Z,8.40
2018-12-11T04:15:19.806Z,17.23
2018-12-11T04:17:47.835Z,11.45
2018-12-11T04:20:15.753Z,11.57
2018-12-11T04:22:43.674Z,17.05
2018-12-11T04:25:11.813Z,12.63
2018-12-11T04:27:39.779Z,13.15
2018-12-11T04:30:08.312Z,10.82
2018-12-11T04:32:36.302Z,13.32
2018-12-11T04:35:04.411Z,11.57
2018-12-11T04:37:32.410Z,9.68
2018-12-11T04:40:00.428Z,9.35
2018-12-11T04:42:28.588Z,10.28
2018-12-11T04:44:56.559Z,12.40
2018-12-11T04:47:24.964Z,14.73
2018-12-11T04:49:52.937Z,9.80
2018-12-11T04:52:20.935Z,9.25
2018-12-11T04:54:48.928Z,9.90
2018-12-11T04:57:17.050Z,9.23
2018-12-11T04:59:45.033Z,10.80
2018-12-11T05:02:13.012Z,10.78
2018-12-11T05:04:40.993Z,9.73
2018-12-11T05:07:08.980Z,14.85
2018-12-11T05:09:36.943Z,11.75
2018-12-11T05:12:05.193Z,10.93
2018-12-11T05:14:33.146Z,17.00
2018-12-11T05:17:01.108Z,10.58
2018-12-11T05:19:31.424Z,11.05
2018-12-11T05:22:01.197Z,10.75
2018-12-11T05:24:29.131Z,11.00
2018-12-11T05:26:57.105Z,11.33
2018-12-11T05:29:25.115Z,12.10
2018-12-11T05:31:53.137Z,15.72
2018-12-11T05:34:21.118Z,10.13
2018-12-11T05:36:49.142Z,14.45
2018-12-11T05:39:17.089Z,17.50
2018-12-11T05:41:45.034Z,12.07
2018-12-11T05:44:12.986Z,13.10
2018-12-11T05:46:40.953Z,15.63
2018-12-11T05:49:08.858Z,15.45
2018-12-11T05:51:36.787Z,13.30
2018-12-11T05:54:04.760Z,14.30
2018-12-11T05:56:32.706Z,13.28
2018-12-11T05:59:01.673Z,16.37
2018-12-11T06:01:29.649Z,14.70
2018-12-11T06:03:58.365Z,10.58
2018-12-11T06:06:26.320Z,13.72
2018-12-11T06:08:54.298Z,8.80
2018-12-11T06:11:23.287Z,8.20
2018-12-11T06:13:51.257Z,9.30
2018-12-11T06:16:19.480Z,11.20
2018-12-11T06:18:47.418Z,9.33
2018-12-11T06:21:15.345Z,7.80
2018-12-11T06:23:43.338Z,6.50
2018-12-11T06:26:11.272Z,7.42
2018-12-11T06:28:39.228Z,7.67
2018-12-11T06:31:07.199Z,6.40
2018-12-11T06:33:36.347Z,9.50
2018-12-11T06:36:04.312Z,9.15
2018-12-11T06:38:32.304Z,11.18
2018-12-11T06:41:00.256Z,15.32
2018-12-11T06:43:28.218Z,12.95
2018-12-11T06:45:56.190Z,8.38
2018-12-11T06:48:24.091Z,9.95
2018-12-11T06:50:52.063Z,7.65
2018-12-11T06:53:20.083Z,8.90
2018-12-11T06:55:48.031Z,9.50
2018-12-11T06:58:15.995Z,11.38
2018-12-11T07:00:43.959Z,11.55
2018-12-11T07:03:11.908Z,10.85
2018-12-11T07:05:39.968Z,14.15
2018-12-11T07:08:10.037Z,12.47
2018-12-11T07:10:37.984Z,10.85
2018-12-11T07:13:05.907Z,11.55
2018-12-11T07:15:33.874Z,14.40
2018-12-11T07:18:01.837Z,20.25
2018-12-11T07:20:29.855Z,20.40
2018-12-11T07:22:57.871Z,14.80
2018-12-11T07:25:25.849Z,18.30
2018-12-11T07:27:53.770Z,15.78
2018-12-11T07:30:22.099Z,14.20
2018-12-11T07:32:50.153Z,14.95
2018-12-11T07:35:18.148Z,14.53
2018-12-11T07:37:46.156Z,12.90
2018-12-11T07:40:14.122Z,17.07
2018-12-11T07:42:42.152Z,16.25
2018-12-11T07:45:10.223Z,12.35
2018-12-11T07:47:38.220Z,16.02
2018-12-11T07:50:06.225Z,14.13
2018-12-11T07:52:36.192Z,11.55
2018-12-11T07:55:04.570Z,12.58
2018-12-11T07:57:32.549Z,15.43
2018-12-11T08:00:00.518Z,14.83
2018-12-11T08:02:28.622Z,14.75
2018-12-11T08:04:56.548Z,24.12
2018-12-11T08:07:25.653Z,20.52
2018-12-11T08:09:53.619Z,20.43
2018-12-11T08:12:21.563Z,21.12
2018-12-11T08:14:50.680Z,17.25
2018-12-11T08:17:18.699Z,13.37
2018-12-11T08:19:49.723Z,16.07
2018-12-11T08:22:17.692Z,14.90
2018-12-11T08:24:45.584Z,14.17
2018-12-11T08:27:13.603Z,17.60
2018-12-11T08:29:41.555Z,18.73
2018-12-11T08:32:09.521Z,13.00
2018-12-11T08:34:37.478Z,14.20
2018-12-11T08:37:05.435Z,14.13
2018-12-11T08:39:33.460Z,14.33
2018-12-11T08:42:01.417Z,21.83
2018-12-11T08:44:29.452Z,13.83
2018-12-11T08:46:57.448Z,18.90
2018-12-11T08:49:25.400Z,12.80
2018-12-11T08:51:53.364Z,12.33
2018-12-11T08:54:21.336Z,11.77
2018-12-11T08:56:49.247Z,14.00
2018-12-11T08:59:17.171Z,13.77
2018-12-11T09:01:45.110Z,10.23
2018-12-11T09:04:13.065Z,14.43
2018-12-11T09:06:41.125Z,12.67
2018-12-11T09:09:11.258Z,16.63
2018-12-11T09:11:41.253Z,9.33
2018-12-11T09:14:09.200Z,9.67
2018-12-11T09:16:37.149Z,8.73
2018-12-11T09:19:05.140Z,9.40
2018-12-11T09:21:33.104Z,8.20
2018-12-11T09:24:01.053Z,6.83
2018-12-11T09:26:29.001Z,9.00
2018-12-11T09:28:56.986Z,12.40
2018-12-11T09:31:25.057Z,9.47
2018-12-11T09:36:27.719Z,7.93
2018-12-11T09:38:55.780Z,10.97
2018-12-11T09:41:23.750Z,13.63
2018-12-11T09:43:51.727Z,5.80
2018-12-11T09:46:19.638Z,6.50
2018-12-11T09:48:47.662Z,6.90
2018-12-11T09:51:17.901Z,6.53
2018-12-11T09:53:45.692Z,7.27
2018-12-11T09:56:13.661Z,8.53
2018-12-11T09:58:41.581Z,7.40
2018-12-11T10:01:09.558Z,5.93
2018-12-11T10:03:37.635Z,5.77
2018-12-11T10:06:05.831Z,6.23
2018-12-11T10:08:33.789Z,6.63
2018-12-11T10:11:01.751Z,5.70
2018-12-11T10:13:29.697Z,6.73
2018-12-11T10:15:57.723Z,6.83
2018-12-11T10:18:25.666Z,7.33
2018-12-11T10:20:53.665Z,8.80
2018-12-11T10:23:21.975Z,5.27
2018-12-11T10:25:50.044Z,6.13
2018-12-11T10:28:18.140Z,6.03
2018-12-11T10:30:48.327Z,6.23
2018-12-11T10:33:17.322Z,5.90
2018-12-11T10:35:45.295Z,6.53
2018-12-11T10:38:13.312Z,5.80
2018-12-11T10:40:41.237Z,6.80
2018-12-11T10:43:10.237Z,5.43
2018-12-11T10:45:38.209Z,7.47
2018-12-11T10:48:07.204Z,9.77
2018-12-11T10:50:35.147Z,5.90
2018-12-11T10:53:03.075Z,7.30
2018-12-11T10:55:31.014Z,6.67
2018-12-11T10:57:59.033Z,2.80
2018-12-11T11:00:32.555Z,5.20
2018-12-11T11:03:05.003Z,5.90
2018-12-11T11:05:33.142Z,8.70
2018-12-11T11:08:01.193Z,2.23
2018-12-11T11:10:29.289Z,3.70
2018-12-11T11:12:57.317Z,2.40
2018-12-11T11:15:25.286Z,2.97
2018-12-11T11:17:54.246Z,4.93
2018-12-11T11:20:22.175Z,4.80
2018-12-11T11:22:50.121Z,5.67
2018-12-11T11:25:18.076Z,4.90
2018-12-11T11:27:46.011Z,4.50
2018-12-11T11:30:14.150Z,3.53
2018-12-11T11:32:42.301Z,6.47
2018-12-11T11:35:10.246Z,4.50
2018-12-11T11:37:38.198Z,2.93
2018-12-11T11:40:06.266Z,5.23
2018-12-11T11:42:34.310Z,6.33
2018-12-11T11:45:02.435Z,6.97
2018-12-11T11:47:30.370Z,4.30
2018-12-11T11:49:58.334Z,3.90
2018-12-11T11:52:26.297Z,4.90
2018-12-11T11:54:54.219Z,4.90
2018-12-11T11:57:22.117Z,5.83
2018-12-11T11:59:50.091Z,6.23
2018-12-11T12:02:18.025Z,4.70
2018-12-11T12:04:45.946Z,9.93
2018-12-11T12:07:13.916Z,1.27
2018-12-11T12:09:41.874Z,1.33
2018-12-11T12:12:09.821Z,3.03
2018-12-11T12:14:37.828Z,3.17
2018-12-11T12:17:05.756Z,5.03
2018-12-11T12:19:33.778Z,4.03
2018-12-11T12:22:01.870Z,6.97
2018-12-11T12:24:29.775Z,3.80
2018-12-11T12:26:57.741Z,2.80
2018-12-11T12:29:25.670Z,4.93
2018-12-11T12:31:53.600Z,3.50
2018-12-11T12:34:21.550Z,3.90
2018-12-11T12:36:49.542Z,1.53
2018-12-11T12:39:17.448Z,4.17
2018-12-11T12:41:45.382Z,5.80
2018-12-11T12:44:13.408Z,10.23
2018-12-11T12:46:41.444Z,10.17
2018-12-11T12:49:09.366Z,1.43
2018-12-11T12:51:37.307Z,3.17
2018-12-11T12:54:06.403Z,5.13
2018-12-11T12:56:34.334Z,2.40
2018-12-11T12:59:02.266Z,3.27
2018-12-11T13:01:30.280Z,9.07
2018-12-11T13:03:58.232Z,4.93
2018-12-11T13:06:26.466Z,2.67
2018-12-11T13:08:54.873Z,2.03
2018-12-11T13:11:22.817Z,2.63
2018-12-11T13:13:50.789Z,4.67
2018-12-11T13:16:18.709Z,12.13
2018-12-11T13:18:46.734Z,1.53
2018-12-11T13:21:14.671Z,8.07
2018-12-11T13:23:42.637Z,0.97
2018-12-11T13:26:10.614Z,4.80
2018-12-11T13:28:38.581Z,7.10
2018-12-11T13:31:06.558Z,2.70
2018-12-11T13:33:34.618Z,1.00
2018-12-11T13:36:02.640Z,2.47
2018-12-11T13:38:30.698Z,1.23
2018-12-11T13:40:58.905Z,2.00
2018-12-11T13:43:26.875Z,3.47
2018-12-11T13:45:54.816Z,2.83
2018-12-11T13:48:24.088Z,1.43
2018-12-11T13:50:53.403Z,0.90
2018-12-11T13:53:21.397Z,2.40
2018-12-11T13:55:49.412Z,2.47
2018-12-11T13:58:17.411Z,1.40
2018-12-11T14:00:45.342Z,4.60
2018-12-11T14:03:13.261Z,4.73
2018-12-11T14:05:41.213Z,11.53
2018-12-11T14:08:10.375Z,1.55
2018-12-11T14:10:38.396Z,5.83
2018-12-11T14:13:06.371Z,6.65
2018-12-11T14:15:34.311Z,3.98
2018-12-11T14:18:02.242Z,3.50
2018-12-11T14:20:30.238Z,3.00
2018-12-11T14:22:58.217Z,8.25
2018-12-11T14:25:26.153Z,0.75
2018-12-11T14:27:54.127Z,3.17
2018-12-11T14:30:22.083Z,2.52
2018-12-11T14:32:50.075Z,3.92
2018-12-11T14:35:18.083Z,0.93
2018-12-11T14:37:46.047Z,1.30
2018-12-11T14:40:13.997Z,1.10
2018-12-11T14:42:41.958Z,2.47
2018-12-11T14:45:09.911Z,3.12
2018-12-11T14:47:37.859Z,5.47
2018-12-11T14:50:06.611Z,2.55
2018-12-11T14:52:34.606Z,2.15
2018-12-11T14:55:02.718Z,3.67
2018-12-11T14:57:31.376Z,1.90
2018-12-11T14:59:59.549Z,9.58
2018-12-11T15:02:27.525Z,5.53
2018-12-11T15:04:55.597Z,2.80
2018-12-11T15:07:23.901Z,1.42
2018-12-11T15:09:52.319Z,2.52
2018-12-11T15:12:20.299Z,7.08
2018-12-11T15:14:48.254Z,5.90
2018-12-11T15:17:16.191Z,5.03
2018-12-11T15:19:45.336Z,9.18
2018-12-11T15:22:13.312Z,5.83
2018-12-11T15:24:41.288Z,4.87
2018-12-11T15:27:09.288Z,1.85
2018-12-11T15:29:37.257Z,3.17
2018-12-11T15:32:05.193Z,8.60
2018-12-11T15:34:33.141Z,4.65
2018-12-11T15:37:01.098Z,1.87
2018-12-11T15:39:29.075Z,2.47
2018-12-11T15:41:57.049Z,10.00
2018-12-11T15:44:25.022Z,11.12
2018-12-11T15:46:53.026Z,3.05
2018-12-11T15:49:21.029Z,5.35
2018-12-11T15:51:49.067Z,2.72
2018-12-11T15:54:17.191Z,3.67
2018-12-11T15:56:45.224Z,8.98
2018-12-11T15:59:13.221Z,7.30
2018-12-11T16:01:41.455Z,6.40
2018-12-11T16:04:09.374Z,8.60
2018-12-11T16:06:37.346Z,4.62
2018-12-11T16:09:09.710Z,10.03
2018-12-11T16:11:37.723Z,6.60
2018-12-11T16:14:05.710Z,1.32
2018-12-11T16:16:33.707Z,1.52
2018-12-11T16:19:02.428Z,1.62
2018-12-11T16:21:30.374Z,3.05
2018-12-11T16:23:58.349Z,5.03
2018-12-11T16:26:26.338Z,6.08
2018-12-11T16:28:54.278Z,9.48
2018-12-11T16:31:22.302Z,3.42
2018-12-11T16:33:50.264Z,7.97
2018-12-11T16:36:18.234Z,5.28
2018-12-11T16:38:46.201Z,2.80
2018-12-11T16:41:14.173Z,1.40
2018-12-11T16:43:42.117Z,2.20
2018-12-11T16:46:10.066Z,6.95
2018-12-11T16:48:38.017Z,1.98
2018-12-11T16:51:06.011Z,3.15
2018-12-11T16:53:35.279Z,2.47
2018-12-11T16:56:03.370Z,5.10
2018-12-11T16:58:31.325Z,3.02
2018-12-11T17:00:59.273Z,4.87
2018-12-11T17:03:27.215Z,5.50
2018-12-11T17:05:55.179Z,10.70
2018-12-11T17:08:23.147Z,5.90
2018-12-11T17:10:51.100Z,4.83
2018-12-11T17:13:19.060Z,1.95
2018-12-11T17:15:48.187Z,4.10
2018-12-11T17:18:16.127Z,1.65
2018-12-11T17:20:44.266Z,4.87
2018-12-11T17:23:12.236Z,1.77
2018-12-11T17:25:40.238Z,4.22
2018-12-11T17:28:08.194Z,8.18
2018-12-11T17:30:36.182Z,3.67
2018-12-11T17:33:04.280Z,2.15
2018-12-11T17:35:32.252Z,2.35
2018-12-11T17:38:00.235Z,3.35
2018-12-11T17:40:28.169Z,3.90
2018-12-11T17:42:56.095Z,3.10
2018-12-11T17:45:24.092Z,4.15
2018-12-11T17:47:52.071Z,2.95
2018-12-11T17:50:20.056Z,3.75
2018-12-11T17:52:48.091Z,2.10
2018-12-11T17:55:16.034Z,1.80
2018-12-11T17:57:45.157Z,2.05
2018-12-11T18:00:13.335Z,4.60
2018-12-11T18:02:42.718Z,6.47
2018-12-11T18:05:10.804Z,3.85
2018-12-11T18:07:38.726Z,2.20
2018-12-11T18:10:07.255Z,2.50
2018-12-11T18:12:35.336Z,4.25
2018-12-11T18:15:03.733Z,2.40
2018-12-11T18:17:31.773Z,3.00
2018-12-11T18:19:59.844Z,1.55
2018-12-11T18:22:27.989Z,4.72
2018-12-11T18:24:56.078Z,2.17
2018-12-11T18:27:24.037Z,2.42
2018-12-11T18:29:52.010Z,2.90
2018-12-11T18:32:25.031Z,2.42
2018-12-11T18:34:50.800Z,1.95
2018-12-11T18:37:18.813Z,2.98
2018-12-11T18:39:47.117Z,2.10
2018-12-11T18:42:15.217Z,2.85
2018-12-11T18:44:43.178Z,4.47
2018-12-11T18:47:11.201Z,5.70
2018-12-11T18:49:39.207Z,5.03
2018-12-11T18:52:07.230Z,1.60
2018-12-11T18:54:35.193Z,2.85
2018-12-11T18:57:03.195Z,13.85
2018-12-11T18:59:31.201Z,5.60
2018-12-11T19:01:59.219Z,1.85
2018-12-11T19:04:27.220Z,5.08
2018-12-11T19:06:55.243Z,3.02
2018-12-11T19:09:24.333Z,3.00
2018-12-11T19:11:52.304Z,4.50
2018-12-11T19:14:20.412Z,10.18
2018-12-11T19:16:48.525Z,2.95
2018-12-11T19:19:16.841Z,2.85
2018-12-11T19:21:44.951Z,2.85
2018-12-11T19:24:20.999Z,3.87
2018-12-11T19:26:48.971Z,3.80
2018-12-11T19:29:16.995Z,6.12
2018-12-11T19:31:47.092Z,5.53
2018-12-11T19:34:15.404Z,5.95
2018-12-11T19:36:43.397Z,6.80
2018-12-11T19:39:13.426Z,7.12
2018-12-11T19:41:41.391Z,11.38
2018-12-11T19:44:09.426Z,4.78
2018-12-11T19:46:37.474Z,4.37
2018-12-11T19:49:05.491Z,7.53
2018-12-11T19:51:40.418Z,6.95
2018-12-11T19:54:08.532Z,8.75
2018-12-11T19:56:36.567Z,4.03
2018-12-11T19:59:04.575Z,5.67
2018-12-11T20:01:32.591Z,7.00
2018-12-11T20:04:00.745Z,5.08
2018-12-11T20:06:28.837Z,6.97
2018-12-11T20:08:56.873Z,10.75
2018-12-11T20:11:24.817Z,4.55
2018-12-11T20:13:52.943Z,6.35
2018-12-11T20:16:21.263Z,4.60
2018-12-11T20:18:49.296Z,5.97
2018-12-11T20:21:17.357Z,6.62
2018-12-11T20:23:45.361Z,8.80
2018-12-11T20:26:13.382Z,8.78
2018-12-11T20:28:41.359Z,4.67
2018-12-11T20:31:09.509Z,11.25
2018-12-11T20:33:37.613Z,3.25
2018-12-11T20:36:05.586Z,7.03
2018-12-11T20:38:33.571Z,4.60
2018-12-11T20:41:01.562Z,4.72
2018-12-11T20:43:30.223Z,7.75
2018-12-11T20:45:58.498Z,6.87
2018-12-11T20:48:26.701Z,5.47
2018-12-11T20:50:54.699Z,5.00
2018-12-11T20:53:22.676Z,4.60
2018-12-11T20:55:50.679Z,11.43
2018-12-11T20:58:18.670Z,6.55
2018-12-11T21:00:53.208Z,5.17
2018-12-11T21:03:21.282Z,5.75
2018-12-11T21:05:49.308Z,4.58
2018-12-11T21:08:17.799Z,7.72
2018-12-11T21:10:45.878Z,5.03
2018-12-11T21:13:14.045Z,7.55
2018-12-11T21:15:42.011Z,10.10
2018-12-11T21:18:10.015Z,8.15
2018-12-11T21:20:38.143Z,8.05
2018-12-11T21:23:06.135Z,11.50
2018-12-11T21:25:34.109Z,10.65
2018-12-11T21:28:02.109Z,8.40
2018-12-11T21:30:30.082Z,7.30
2018-12-11T21:32:58.111Z,7.70
2018-12-11T21:35:26.097Z,12.15
2018-12-11T21:37:54.197Z,12.35
2018-12-11T21:40:23.243Z,11.83
2018-12-11T21:42:51.261Z,10.85
2018-12-11T21:45:19.235Z,9.65
2018-12-11T21:47:47.267Z,13.70
2018-12-11T21:50:15.277Z,11.35
2018-12-11T21:52:43.217Z,8.08
2018-12-11T21:55:11.213Z,11.70
2018-12-11T21:57:40.377Z,9.50
2018-12-11T22:00:09.433Z,12.33
2018-12-11T22:02:37.486Z,8.55
2018-12-11T22:05:05.470Z,9.98
2018-12-11T22:07:33.489Z,12.82
2018-12-11T22:10:01.517Z,7.78
2018-12-11T22:12:30.968Z,11.90
2018-12-11T22:14:58.991Z,9.18
2018-12-11T22:17:26.965Z,9.43
2018-12-11T22:19:55.098Z,8.85
2018-12-11T22:22:23.042Z,10.63
2018-12-11T22:24:50.972Z,10.05
2018-12-11T22:27:18.900Z,8.00
2018-12-11T22:29:46.855Z,8.70
2018-12-11T22:32:14.920Z,5.30
2018-12-11T22:34:42.957Z,6.12
2018-12-11T22:37:10.918Z,11.43
2018-12-11T22:39:38.890Z,7.85
2018-12-11T22:42:06.953Z,5.50
2018-12-11T22:44:34.974Z,7.05
2018-12-11T22:47:02.950Z,7.12
2018-12-11T22:49:30.938Z,7.45
2018-12-11T22:51:58.898Z,10.88
2018-12-11T22:54:26.814Z,5.17
2018-12-11T22:56:54.737Z,4.37
2018-12-11T22:59:22.689Z,2.75
2018-12-11T23:01:50.672Z,3.30
2018-12-11T23:04:18.646Z,4.03
2018-12-11T23:06:46.561Z,4.72
2018-12-11T23:09:14.532Z,6.95
2018-12-11T23:11:42.463Z,4.50
2018-12-11T23:14:10.335Z,4.33
2018-12-11T23:16:38.243Z,6.20
2018-12-11T23:19:07.218Z,8.63
2018-12-11T23:21:35.079Z,3.67
2018-12-11T23:24:02.985Z,2.77
2018-12-11T23:26:32.904Z,3.70
2018-12-11T23:29:00.863Z,2.75
2018-12-11T23:31:28.786Z,5.05
2018-12-11T23:33:56.773Z,9.63
2018-12-11T23:36:24.729Z,2.42
2018-12-11T23:38:52.665Z,10.53
2018-12-11T23:41:20.632Z,3.58
2018-12-11T23:43:48.586Z,4.60
2018-12-11T23:46:16.481Z,2.50
2018-12-11T23:48:44.426Z,2.62
2018-12-11T23:51:12.360Z,3.10
2018-12-11T23:53:41.339Z,3.25
2018-12-11T23:56:09.292Z,2.60
